createdAt,value
2023-05-14T00:02:48.050Z,3.07
2023-05-14T00:05:50.860Z,3.50
2023-05-14T00:08:53.115Z,3.42
2023-05-14T00:11:55.423Z,3.43
2023-05-14T00:14:57.782Z,3.30
2023-05-14T00:18:00.319Z,3.40
2023-05-14T00:21:02.488Z,3.40
2023-05-14T00:24:05.006Z,2.92
2023-05-14T00:27:07.365Z,2.67
2023-05-14T00:30:09.866Z,3.35
2023-05-14T00:33:12.190Z,3.13
2023-05-14T00:36:14.388Z,3.20
2023-05-14T00:39:16.554Z,3.20
2023-05-14T00:42:18.692Z,2.97
2023-05-14T00:45:20.978Z,2.95
2023-05-14T00:48:23.682Z,3.08
2023-05-14T00:51:25.955Z,3.35
2023-05-14T00:54:28.331Z,3.20
2023-05-14T00:57:30.642Z,3.20
2023-05-14T01:00:33.029Z,3.53
2023-05-14T01:03:36.023Z,3.00
2023-05-14T01:06:47.221Z,2.75
2023-05-14T01:10:19.879Z,3.20
2023-05-14T01:13:44.530Z,3.00
2023-05-14T01:16:52.507Z,3.53
2023-05-14T01:19:55.326Z,2.88
2023-05-14T01:22:57.511Z,3.10
2023-05-14T01:25:59.670Z,3.17
2023-05-14T01:29:24.005Z,3.28
2023-05-14T01:32:26.909Z,3.10
2023-05-14T01:35:30.124Z,3.40
2023-05-14T01:38:34.121Z,3.00
2023-05-14T01:41:37.440Z,3.13
2023-05-14T01:44:39.691Z,3.10
2023-05-14T01:47:42.086Z,3.00
2023-05-14T01:50:44.302Z,3.00
2023-05-14T01:53:46.516Z,3.35
2023-05-14T01:56:48.628Z,2.92
2023-05-14T01:59:50.721Z,3.15
2023-05-14T02:02:52.921Z,2.70
2023-05-14T02:05:55.167Z,3.13
2023-05-14T02:08:57.368Z,3.10
2023-05-14T02:11:59.546Z,2.70
2023-05-14T02:15:03.132Z,2.97
2023-05-14T02:18:05.494Z,2.97
2023-05-14T02:21:07.677Z,2.85
2023-05-14T02:24:09.886Z,3.05
2023-05-14T02:27:13.264Z,3.00
2023-05-14T02:30:15.504Z,3.40
2023-05-14T02:33:17.877Z,3.30
2023-05-14T02:36:20.065Z,3.00
2023-05-14T02:39:22.444Z,3.00
2023-05-14T02:42:24.607Z,2.58
2023-05-14T02:45:27.108Z,2.90
2023-05-14T02:48:29.444Z,2.80
2023-05-14T02:51:31.656Z,2.90
2023-05-14T02:54:33.934Z,2.50
2023-05-14T02:57:36.144Z,3.10
2023-05-14T03:00:38.290Z,2.72
2023-05-14T03:03:40.962Z,2.70
2023-05-14T03:06:43.479Z,2.57
2023-05-14T03:09:45.685Z,2.80
2023-05-14T03:12:47.847Z,2.80
2023-05-14T03:15:54.695Z,2.40
2023-05-14T03:18:57.085Z,2.53
2023-05-14T03:21:59.402Z,2.63
2023-05-14T03:25:01.529Z,2.80
2023-05-14T03:28:04.101Z,2.67
2023-05-14T03:31:06.391Z,2.70
2023-05-14T03:34:08.616Z,2.22
2023-05-14T03:37:11.208Z,2.53
2023-05-14T03:40:13.375Z,3.08
2023-05-14T03:43:16.302Z,2.65
2023-05-14T03:46:19.285Z,2.73
2023-05-14T03:49:21.707Z,2.85
2023-05-14T03:52:23.959Z,3.30
2023-05-14T03:55:26.281Z,2.72
2023-05-14T03:58:28.448Z,2.65
2023-05-14T04:01:30.639Z,3.08
2023-05-14T04:04:33.735Z,2.70
2023-05-14T04:07:37.730Z,2.73
2023-05-14T04:10:39.987Z,2.47
2023-05-14T04:13:42.180Z,2.58
2023-05-14T04:16:45.413Z,2.37
2023-05-14T04:19:47.712Z,2.50
2023-05-14T04:22:49.898Z,2.65
2023-05-14T04:25:52.068Z,2.72
2023-05-14T04:28:54.308Z,2.42
2023-05-14T04:31:56.484Z,2.65
2023-05-14T04:34:58.615Z,2.30
2023-05-14T04:38:00.895Z,2.30
2023-05-14T04:41:03.035Z,2.40
2023-05-14T04:44:07.674Z,2.60
2023-05-14T04:47:09.815Z,2.60
2023-05-14T04:50:13.268Z,2.42
2023-05-14T04:53:15.449Z,2.97
2023-05-14T04:56:17.587Z,2.60
2023-05-14T04:59:19.724Z,2.45
2023-05-14T05:02:21.851Z,2.53
2023-05-14T05:05:24.039Z,2.70
2023-05-14T05:08:26.376Z,2.33
2023-05-14T05:11:28.556Z,2.40
2023-05-14T05:14:30.786Z,2.42
2023-05-14T05:17:33.028Z,2.50
2023-05-14T05:20:35.221Z,2.38
2023-05-14T05:23:37.363Z,2.60
2023-05-14T05:26:39.474Z,2.70
2023-05-14T05:29:41.591Z,3.17
2023-05-14T05:32:44.024Z,2.85
2023-05-14T05:35:46.275Z,2.67
2023-05-14T05:38:48.429Z,2.60
2023-05-14T05:41:50.766Z,2.92
2023-05-14T05:44:52.888Z,2.60
2023-05-14T05:47:55.085Z,3.23
2023-05-14T05:50:57.464Z,2.90
2023-05-14T05:53:59.610Z,2.53
2023-05-14T05:57:01.754Z,2.95
2023-05-14T06:00:13.589Z,2.45
2023-05-14T06:03:15.935Z,2.58
2023-05-14T06:06:18.166Z,2.83
2023-05-14T06:09:20.873Z,2.47
2023-05-14T06:12:22.990Z,2.80
2023-05-14T06:15:25.103Z,2.90
2023-05-14T06:18:27.299Z,2.83
2023-05-14T06:21:29.632Z,2.83
2023-05-14T06:24:31.821Z,2.85
2023-05-14T06:27:34.022Z,3.00
2023-05-14T06:30:36.209Z,3.03
2023-05-14T06:33:38.350Z,3.17
2023-05-14T06:36:40.499Z,3.13
2023-05-14T06:39:50.077Z,2.97
2023-05-14T06:42:52.353Z,3.25
2023-05-14T06:45:55.257Z,3.00
2023-05-14T06:48:59.347Z,3.00
2023-05-14T06:52:02.098Z,3.10
2023-05-14T06:55:04.475Z,2.97
2023-05-14T06:58:07.507Z,3.20
2023-05-14T07:01:09.701Z,2.90
2023-05-14T07:04:12.134Z,3.22
2023-05-14T07:07:17.394Z,3.30
2023-05-14T07:10:19.565Z,2.90
2023-05-14T07:13:21.815Z,3.30
2023-05-14T07:16:23.945Z,2.55
2023-05-14T07:19:28.706Z,3.20
2023-05-14T07:22:30.895Z,3.20
2023-05-14T07:25:33.020Z,2.80
2023-05-14T07:28:35.350Z,3.13
2023-05-14T07:31:37.577Z,2.63
2023-05-14T07:34:39.932Z,3.17
2023-05-14T07:37:42.927Z,3.13
2023-05-14T07:40:45.124Z,3.50
2023-05-14T07:43:47.291Z,3.42
2023-05-14T07:46:49.547Z,2.95
2023-05-14T07:49:56.324Z,3.03
2023-05-14T07:52:58.555Z,3.10
2023-05-14T07:56:00.975Z,2.70
2023-05-14T07:59:03.163Z,3.10
2023-05-14T08:02:10.284Z,2.75
2023-05-14T08:05:12.631Z,2.83
2023-05-14T08:08:14.831Z,2.95
2023-05-14T08:11:17.047Z,2.97
2023-05-14T08:14:19.179Z,3.28
2023-05-14T08:17:21.393Z,3.28
2023-05-14T08:20:24.250Z,3.40
2023-05-14T08:23:26.856Z,2.90
2023-05-14T08:26:28.977Z,3.20
2023-05-14T08:29:31.359Z,3.22
2023-05-14T08:32:33.581Z,3.35
2023-05-14T08:35:35.713Z,3.35
2023-05-14T08:38:37.818Z,3.63
2023-05-14T08:41:40.369Z,3.23
2023-05-14T08:44:52.200Z,3.00
2023-05-14T08:47:55.888Z,3.30
2023-05-14T08:50:58.204Z,3.50
2023-05-14T08:54:02.533Z,3.40
2023-05-14T08:57:05.718Z,3.40
2023-05-14T09:00:08.550Z,3.45
2023-05-14T09:03:11.452Z,3.00
2023-05-14T09:06:14.423Z,3.60
2023-05-14T09:09:16.850Z,3.13
2023-05-14T09:12:19.378Z,3.43
2023-05-14T09:15:21.902Z,3.90
2023-05-14T09:18:24.038Z,3.75
2023-05-14T09:21:26.257Z,3.60
2023-05-14T09:24:29.491Z,3.53
2023-05-14T09:27:32.830Z,3.50
2023-05-14T09:30:36.945Z,3.58
2023-05-14T09:33:39.093Z,3.60
2023-05-14T09:36:41.521Z,3.13
2023-05-14T09:39:43.679Z,3.17
2023-05-14T09:42:46.307Z,3.30
2023-05-14T09:45:48.425Z,5.05
2023-05-14T09:48:50.578Z,3.92
2023-05-14T09:51:52.796Z,3.33
2023-05-14T09:54:55.053Z,3.35
2023-05-14T09:57:57.220Z,4.30
2023-05-14T10:01:01.723Z,3.88
2023-05-14T10:04:06.897Z,2.90
2023-05-14T10:07:09.369Z,3.47
2023-05-14T10:10:15.636Z,3.38
2023-05-14T10:13:21.340Z,3.80
2023-05-14T10:16:26.479Z,3.28
2023-05-14T10:19:33.426Z,4.07
2023-05-14T10:22:35.781Z,3.80
2023-05-14T10:25:38.085Z,3.90
2023-05-14T10:28:40.389Z,4.00
2023-05-14T10:31:55.378Z,4.13
2023-05-14T10:34:58.423Z,3.50
2023-05-14T10:38:00.793Z,3.60
2023-05-14T10:41:11.511Z,3.83
2023-05-14T10:44:14.158Z,4.37
2023-05-14T10:47:17.910Z,3.88
2023-05-14T10:50:20.611Z,4.20
2023-05-14T10:53:34.189Z,3.67
2023-05-14T10:56:36.872Z,3.45
2023-05-14T10:59:42.157Z,4.05
2023-05-14T11:02:45.044Z,3.72
2023-05-14T11:05:47.594Z,4.20
2023-05-14T11:08:51.244Z,4.20
2023-05-14T11:11:54.535Z,4.10
2023-05-14T11:14:58.153Z,3.63
2023-05-14T11:18:00.485Z,3.92
2023-05-14T11:21:03.100Z,3.67
2023-05-14T11:24:07.324Z,3.60
2023-05-14T11:27:10.222Z,3.60
2023-05-14T11:30:14.295Z,4.10
2023-05-14T11:33:17.353Z,4.05
2023-05-14T11:36:19.543Z,3.58
2023-05-14T11:39:21.666Z,4.05
2023-05-14T11:42:24.757Z,4.20
2023-05-14T11:45:27.454Z,3.57
2023-05-14T11:48:29.586Z,3.90
2023-05-14T11:51:31.969Z,3.78
2023-05-14T11:54:34.846Z,3.67
2023-05-14T11:57:37.353Z,3.50
2023-05-14T12:00:40.129Z,3.55
2023-05-14T12:03:42.525Z,3.90
2023-05-14T12:06:46.679Z,3.63
2023-05-14T12:09:49.779Z,3.33
2023-05-14T12:12:52.221Z,3.78
2023-05-14T12:15:59.051Z,3.00
2023-05-14T12:19:01.845Z,3.50
2023-05-14T12:22:04.282Z,3.50
2023-05-14T12:25:12.412Z,3.53
2023-05-14T12:28:18.168Z,3.15
2023-05-14T12:31:28.404Z,3.65
2023-05-14T12:34:30.593Z,3.70
2023-05-14T12:37:33.328Z,3.70
2023-05-14T12:40:36.496Z,3.45
2023-05-14T12:43:42.461Z,3.58
2023-05-14T12:46:44.732Z,3.87
2023-05-14T12:49:46.926Z,3.58
2023-05-14T12:52:49.163Z,3.88
2023-05-14T12:55:51.346Z,3.50
2023-05-14T12:58:55.271Z,3.88
2023-05-14T13:01:57.401Z,3.35
2023-05-14T13:05:02.571Z,4.00
2023-05-14T13:08:04.788Z,4.05
2023-05-14T13:11:06.923Z,4.38
2023-05-14T13:14:09.149Z,4.20
2023-05-14T13:17:11.357Z,4.00
2023-05-14T13:20:13.504Z,4.28
2023-05-14T13:23:15.718Z,4.38
2023-05-14T13:26:17.808Z,4.03
2023-05-14T13:29:20.036Z,4.30
2023-05-14T13:32:22.295Z,4.13
2023-05-14T13:35:24.792Z,4.30
2023-05-14T13:38:27.208Z,4.35
2023-05-14T13:41:30.056Z,4.32
2023-05-14T13:44:32.166Z,4.00
2023-05-14T13:47:34.440Z,3.93
2023-05-14T13:50:36.613Z,4.40
2023-05-14T13:53:38.787Z,3.70
2023-05-14T13:56:41.264Z,4.10
2023-05-14T13:59:43.500Z,3.97
2023-05-14T14:02:45.767Z,4.03
2023-05-14T14:05:51.646Z,3.90
2023-05-14T14:08:53.823Z,3.45
2023-05-14T14:11:56.012Z,3.95
2023-05-14T14:14:58.247Z,4.25
2023-05-14T14:18:00.575Z,3.90
2023-05-14T14:21:02.728Z,4.15
2023-05-14T14:24:05.603Z,3.75
2023-05-14T14:27:08.047Z,4.10
2023-05-14T14:30:16.890Z,4.30
2023-05-14T14:33:19.020Z,4.30
2023-05-14T14:36:21.241Z,4.15
2023-05-14T14:39:25.329Z,3.20
2023-05-14T14:42:27.465Z,3.33
2023-05-14T14:45:29.753Z,3.17
2023-05-14T14:48:39.898Z,2.90
2023-05-14T14:51:42.187Z,3.40
2023-05-14T14:54:44.375Z,2.70
2023-05-14T14:57:48.823Z,3.37
2023-05-14T15:00:54.612Z,2.45
2023-05-14T15:03:56.797Z,2.78
2023-05-14T15:06:59.191Z,2.67
2023-05-14T15:10:01.362Z,2.80
2023-05-14T15:13:04.928Z,2.83
2023-05-14T15:16:07.241Z,2.78
2023-05-14T15:19:09.469Z,2.50
2023-05-14T15:22:11.641Z,2.05
2023-05-14T15:25:13.861Z,2.30
2023-05-14T15:28:16.192Z,2.10
2023-05-14T15:31:18.505Z,2.50
2023-05-14T15:34:21.378Z,2.42
2023-05-14T15:37:26.839Z,2.95
2023-05-14T15:40:29.575Z,2.55
2023-05-14T15:43:31.836Z,2.47
2023-05-14T15:46:34.105Z,2.47
2023-05-14T15:49:36.431Z,1.90
2023-05-14T15:52:40.163Z,2.75
2023-05-14T15:55:42.389Z,2.80
2023-05-14T15:58:44.506Z,2.70
2023-05-14T16:01:46.791Z,2.50
2023-05-14T16:04:49.623Z,2.33
2023-05-14T16:07:52.203Z,2.50
2023-05-14T16:10:54.337Z,2.17
2023-05-14T16:13:56.662Z,2.63
2023-05-14T16:16:58.828Z,2.63
2023-05-14T16:20:01.167Z,2.20
2023-05-14T16:23:03.357Z,2.05
2023-05-14T16:26:05.945Z,2.20
2023-05-14T16:29:08.406Z,2.20
2023-05-14T16:32:10.699Z,2.38
2023-05-14T16:35:12.952Z,1.75
2023-05-14T16:38:15.140Z,1.85
2023-05-14T16:41:17.279Z,2.20
2023-05-14T16:44:19.446Z,2.00
2023-05-14T16:47:21.527Z,2.42
2023-05-14T16:50:23.708Z,2.03
2023-05-14T16:53:26.443Z,2.35
2023-05-14T16:56:29.381Z,2.10
2023-05-14T16:59:33.900Z,2.57
2023-05-14T17:02:36.187Z,1.60
2023-05-14T17:05:38.437Z,1.92
2023-05-14T17:08:40.745Z,2.17
2023-05-14T17:11:42.861Z,1.98
2023-05-14T17:14:45.123Z,1.90
2023-05-14T17:17:47.336Z,2.10
2023-05-14T17:20:49.581Z,1.90
2023-05-14T17:23:51.800Z,2.17
2023-05-14T17:26:54.001Z,1.90
2023-05-14T17:29:56.183Z,2.13
2023-05-14T17:32:58.534Z,2.10
2023-05-14T17:36:00.722Z,1.90
2023-05-14T17:39:02.899Z,2.53
2023-05-14T17:42:06.197Z,2.25
2023-05-14T17:45:08.695Z,2.30
2023-05-14T17:48:10.884Z,2.80
2023-05-14T17:51:13.035Z,2.60
2023-05-14T17:54:15.408Z,2.50
2023-05-14T17:57:20.513Z,2.35
2023-05-14T18:00:22.719Z,2.80
2023-05-14T18:03:24.970Z,2.10
2023-05-14T18:06:27.209Z,2.50
2023-05-14T18:09:29.322Z,2.60
2023-05-14T18:12:31.459Z,2.53
2023-05-14T18:15:33.663Z,2.72
2023-05-14T18:18:35.973Z,2.55
2023-05-14T18:21:38.558Z,2.53
2023-05-14T18:24:40.703Z,2.33
2023-05-14T18:27:44.539Z,2.10
2023-05-14T18:30:47.055Z,2.70
2023-05-14T18:33:49.552Z,2.22
2023-05-14T18:36:51.740Z,2.53
2023-05-14T18:39:54.791Z,2.55
2023-05-14T18:42:57.025Z,2.72
2023-05-14T18:45:59.591Z,2.30
2023-05-14T18:49:01.775Z,2.45
2023-05-14T18:52:04.195Z,2.73
2023-05-14T18:55:06.674Z,2.83
2023-05-14T18:58:08.855Z,2.63
2023-05-14T19:01:11.078Z,2.77
2023-05-14T19:04:13.224Z,2.55
2023-05-14T19:07:15.364Z,2.60
2023-05-14T19:10:17.576Z,2.40
2023-05-14T19:13:19.673Z,2.42
2023-05-14T19:16:22.174Z,2.30
2023-05-14T19:19:24.312Z,2.47
2023-05-14T19:22:26.496Z,2.37
2023-05-14T19:25:28.982Z,2.90
2023-05-14T19:28:31.349Z,2.60
2023-05-14T19:31:33.510Z,2.20
2023-05-14T19:34:36.113Z,2.28
2023-05-14T19:37:38.295Z,2.30
2023-05-14T19:40:42.972Z,2.42
2023-05-14T19:43:45.899Z,2.90
2023-05-14T19:46:48.812Z,2.20
2023-05-14T19:49:51.051Z,2.15
2023-05-14T19:52:53.228Z,2.30
2023-05-14T19:55:59.322Z,2.55
2023-05-14T19:59:01.434Z,2.13
2023-05-14T20:02:04.683Z,2.20
2023-05-14T20:05:09.081Z,1.80
2023-05-14T20:08:12.052Z,2.28
2023-05-14T20:11:15.709Z,2.40
2023-05-14T20:14:17.970Z,1.98
2023-05-14T20:17:23.487Z,2.58
2023-05-14T20:20:27.072Z,2.17
2023-05-14T20:23:30.579Z,2.10
2023-05-14T20:26:32.660Z,2.17
2023-05-14T20:29:34.806Z,2.38
2023-05-14T20:32:37.085Z,2.47
2023-05-14T20:35:40.832Z,2.42
2023-05-14T20:38:43.056Z,2.20
2023-05-14T20:41:45.761Z,2.25
2023-05-14T20:44:48.766Z,2.67
2023-05-14T20:47:50.959Z,2.50
2023-05-14T20:50:53.139Z,2.50
2023-05-14T20:53:55.302Z,2.57
2023-05-14T20:56:57.441Z,2.67
2023-05-14T20:59:59.594Z,2.58
2023-05-14T21:03:01.957Z,2.70
2023-05-14T21:06:04.355Z,2.30
2023-05-14T21:09:06.488Z,2.58
2023-05-14T21:12:09.049Z,2.70
2023-05-14T21:15:11.428Z,2.40
2023-05-14T21:18:13.591Z,2.38
2023-05-14T21:21:15.789Z,2.33
2023-05-14T21:24:18.981Z,2.23
2023-05-14T21:27:21.887Z,2.30
2023-05-14T21:30:24.133Z,2.30
2023-05-14T21:33:26.372Z,2.50
2023-05-14T21:36:28.617Z,2.15
2023-05-14T21:39:30.814Z,2.30
2023-05-14T21:42:32.914Z,2.20
2023-05-14T21:45:35.129Z,2.30
2023-05-14T21:48:37.390Z,2.28
2023-05-14T21:51:39.545Z,2.47
2023-05-14T21:54:41.725Z,2.27
2023-05-14T21:57:43.835Z,2.08
2023-05-14T22:00:45.972Z,2.20
2023-05-14T22:03:48.181Z,2.30
2023-05-14T22:06:50.508Z,1.70
2023-05-14T22:09:52.902Z,2.05
2023-05-14T22:12:55.047Z,2.30
2023-05-14T22:16:11.652Z,2.15
2023-05-14T22:19:16.396Z,1.90
2023-05-14T22:22:18.786Z,2.17
2023-05-14T22:25:20.914Z,2.10
2023-05-14T22:28:23.341Z,2.40
2023-05-14T22:31:25.598Z,2.15
2023-05-14T22:34:27.745Z,2.17
2023-05-14T22:37:29.818Z,2.50
2023-05-14T22:40:32.072Z,2.50
2023-05-14T22:43:34.272Z,2.33
2023-05-14T22:46:36.491Z,2.33
2023-05-14T22:49:40.003Z,2.53
2023-05-14T22:52:42.243Z,2.58
2023-05-14T22:55:44.389Z,2.10
2023-05-14T22:58:46.619Z,2.60
2023-05-14T23:01:48.811Z,2.47
2023-05-14T23:04:51.107Z,2.57
2023-05-14T23:07:53.487Z,2.70
2023-05-14T23:10:55.609Z,2.40
2023-05-14T23:13:57.786Z,2.38
2023-05-14T23:16:59.990Z,2.60
2023-05-14T23:20:02.201Z,2.65
2023-05-14T23:23:04.975Z,2.28
2023-05-14T23:26:07.135Z,2.90
2023-05-14T23:29:09.275Z,2.80
2023-05-14T23:32:11.378Z,2.65
2023-05-14T23:35:13.632Z,2.57
2023-05-14T23:38:16.074Z,2.20
2023-05-14T23:41:18.225Z,2.50
2023-05-14T23:44:20.389Z,2.70
2023-05-14T23:47:22.692Z,2.83
2023-05-14T23:50:25.383Z,2.50
2023-05-14T23:53:27.525Z,2.55
2023-05-14T23:56:29.717Z,2.63
2023-05-14T23:59:31.898Z,2.75
